Time;durP1;ratioP1;P1;durP2;ratioP2;P2;SDS_P1;SDS_P2;PMS_P1;PMS_P2;Temp;Humidity;BMP_temperature;BMP_pressure;BME280_temperature;BME280_humidity;BME280_pressure;Samples;Min_cycle;Max_cycle;Signal;HPM_P1;HPM_P2
2023/11/09 00:01:38;;;;;;;;;;;22.20;46.20;;;;;;5115327;28;19962;-56
2023/11/09 00:04:06;;;;;;;;;;;22.20;46.20;;;;;;5115854;28;20330;-56
2023/11/09 00:06:33;;;;;;;;;;;22.20;46.20;;;;;;5115343;28;19924;-55
2023/11/09 00:09:00;;;;;;;;;;;22.20;46.30;;;;;;5115637;28;19963;-50
2023/11/09 00:11:28;;;;;;;;;;;22.20;46.20;;;;;;5115718;28;19978;-54
2023/11/09 00:13:55;;;;;;;;;;;22.20;46.20;;;;;;5115300;28;19946;-53
2023/11/09 00:16:22;;;;;;;;;;;22.20;46.80;;;;;;5115697;28;20014;-55
2023/11/09 00:18:49;;;;;;;;;;;22.20;46.30;;;;;;5115641;28;20288;-56
2023/11/09 00:21:16;;;;;;;;;;;22.20;46.20;;;;;;5114989;28;19927;-55
2023/11/09 00:23:43;;;;;;;;;;;22.20;46.20;;;;;;5114917;28;19924;-54
2023/11/09 00:26:10;;;;;;;;;;;22.20;46.10;;;;;;5115216;28;19923;-49
2023/11/09 00:28:37;;;;;;;;;;;22.20;46.10;;;;;;5114874;28;19969;-51
2023/11/09 00:31:04;;;;;;;;;;;22.20;46.10;;;;;;5115204;28;19985;-55
2023/11/09 00:33:31;;;;;;;;;;;22.20;46.10;;;;;;5114800;28;20361;-49
2023/11/09 00:35:58;;;;;;;;;;;22.20;46.10;;;;;;5115014;28;19980;-55
2023/11/09 00:38:26;;;;;;;;;;;22.20;46.10;;;;;;5115366;28;20010;-53
2023/11/09 00:40:53;;;;;;;;;;;22.20;46.10;;;;;;5114695;28;19924;-55
2023/11/09 00:43:20;;;;;;;;;;;22.20;46.10;;;;;;5114669;28;19924;-55
2023/11/09 00:45:47;;;;;;;;;;;22.20;46.10;;;;;;5114838;28;20351;-55
2023/11/09 00:48:14;;;;;;;;;;;22.20;46.10;;;;;;5114666;28;20018;-55
2023/11/09 00:50:41;;;;;;;;;;;22.10;46.00;;;;;;5096914;28;19935;-55
2023/11/09 00:53:09;;;;;;;;;;;22.10;46.00;;;;;;5114909;28;19959;-54
2023/11/09 00:55:36;;;;;;;;;;;22.10;46.00;;;;;;5114793;28;19931;-55
2023/11/09 00:58:03;;;;;;;;;;;22.10;46.00;;;;;;5096905;28;20359;-54
2023/11/09 01:00:31;;;;;;;;;;;22.10;46.00;;;;;;5114384;28;19924;-54
2023/11/09 01:02:58;;;;;;;;;;;22.10;46.00;;;;;;5114181;28;19923;-51
2023/11/09 01:05:25;;;;;;;;;;;22.10;46.10;;;;;;5114109;28;20429;-55
2023/11/09 01:07:52;;;;;;;;;;;22.10;46.00;;;;;;5114378;28;19924;-55
2023/11/09 01:10:19;;;;;;;;;;;22.10;46.00;;;;;;5114508;28;20373;-54
2023/11/09 01:12:46;;;;;;;;;;;22.10;46.00;;;;;;5096053;28;20022;-55
2023/11/09 01:15:13;;;;;;;;;;;22.10;46.10;;;;;;5114181;28;20283;-55
2023/11/09 01:17:41;;;;;;;;;;;22.10;46.00;;;;;;5089404;28;19970;-57
2023/11/09 01:20:08;;;;;;;;;;;22.10;46.60;;;;;;5079935;28;19971;-55
2023/11/09 01:22:35;;;;;;;;;;;22.10;46.00;;;;;;5096167;28;19949;-56
2023/11/09 01:25:02;;;;;;;;;;;22.10;46.00;;;;;;5114025;28;20345;-55
2023/11/09 01:27:29;;;;;;;;;;;22.10;46.00;;;;;;5113739;28;19931;-54
2023/11/09 01:29:56;;;;;;;;;;;22.10;46.10;;;;;;5113806;28;20010;-51
2023/11/09 01:32:25;;;;;;;;;;;22.10;46.10;;;;;;5113823;28;19930;-52
2023/11/09 01:34:52;;;;;;;;;;;22.10;46.10;;;;;;5113768;28;19923;-55
2023/11/09 01:37:20;;;;;;;;;;;22.10;46.10;;;;;;5114336;28;19923;-55
2023/11/09 01:39:47;;;;;;;;;;;22.10;46.10;;;;;;5113863;28;19969;-55
2023/11/09 01:42:14;;;;;;;;;;;22.00;46.10;;;;;;5113857;28;20026;-54
2023/11/09 01:44:41;;;;;;;;;;;22.10;46.20;;;;;;5113950;28;19923;-56
2023/11/09 01:47:09;;;;;;;;;;;22.00;46.10;;;;;;5113535;28;19982;-56
2023/11/09 01:49:36;;;;;;;;;;;22.10;46.10;;;;;;5113882;28;20376;-55
2023/11/09 01:52:03;;;;;;;;;;;22.10;46.10;;;;;;5114086;28;19927;-54
2023/11/09 01:54:32;;;;;;;;;;;22.00;46.10;;;;;;5113498;28;19924;-56
2023/11/09 01:56:59;;;;;;;;;;;22.10;46.10;;;;;;5114031;28;20367;-56
2023/11/09 01:59:27;;;;;;;;;;;22.10;46.10;;;;;;5115026;28;19924;-55
2023/11/09 02:01:55;;;;;;;;;;;22.10;46.00;;;;;;5117168;28;20322;-54
2023/11/09 02:04:22;;;;;;;;;;;22.10;46.00;;;;;;5117876;28;19963;-54
2023/11/09 02:06:53;;;;;;;;;;;22.00;45.90;;;;;;5117851;28;19923;-55
2023/11/09 02:09:20;;;;;;;;;;;22.00;45.90;;;;;;5117806;28;19930;-53
2023/11/09 02:11:48;;;;;;;;;;;22.10;46.00;;;;;;5117842;28;19953;-56
2023/11/09 02:14:15;;;;;;;;;;;22.00;45.90;;;;;;5117817;28;20300;-56
2023/11/09 02:16:45;;;;;;;;;;;22.00;45.90;;;;;;5117981;28;20269;-55
2023/11/09 02:19:16;;;;;;;;;;;22.00;45.90;;;;;;5118031;28;19963;-54
2023/11/09 02:21:44;;;;;;;;;;;22.00;45.90;;;;;;5117642;28;19924;-56
2023/11/09 02:24:11;;;;;;;;;;;22.00;45.90;;;;;;5117290;28;19971;-56
2023/11/09 02:26:38;;;;;;;;;;;22.00;45.90;;;;;;5117592;28;20341;-54
2023/11/09 02:29:05;;;;;;;;;;;22.00;46.40;;;;;;5117388;28;20376;-56
2023/11/09 02:31:32;;;;;;;;;;;22.00;45.90;;;;;;5117286;28;19970;-55
2023/11/09 02:34:02;;;;;;;;;;;22.00;45.90;;;;;;5117632;28;20383;-56
2023/11/09 02:36:30;;;;;;;;;;;22.00;45.90;;;;;;5117479;28;19924;-56
2023/11/09 02:38:57;;;;;;;;;;;22.00;45.90;;;;;;5117610;28;20006;-55
2023/11/09 02:41:24;;;;;;;;;;;22.00;45.90;;;;;;5117246;28;20295;-54
2023/11/09 02:43:51;;;;;;;;;;;22.00;45.90;;;;;;5099199;28;19950;-56
2023/11/09 02:46:18;;;;;;;;;;;22.00;45.90;;;;;;5082108;28;20038;-56
2023/11/09 02:48:46;;;;;;;;;;;22.00;45.90;;;;;;5116954;28;19924;-56
2023/11/09 02:51:13;;;;;;;;;;;22.00;45.90;;;;;;5098991;28;19931;-55
2023/11/09 02:53:40;;;;;;;;;;;22.00;45.90;;;;;;5117162;28;19976;-57
2023/11/09 02:56:07;;;;;;;;;;;22.00;45.90;;;;;;5116916;28;19966;-55
2023/11/09 02:58:34;;;;;;;;;;;22.00;45.90;;;;;;5116975;28;19976;-55
2023/11/09 03:01:01;;;;;;;;;;;22.00;46.00;;;;;;5098967;28;20118;-57
2023/11/09 03:03:29;;;;;;;;;;;22.00;46.50;;;;;;5117036;28;19967;-56
2023/11/09 03:05:57;;;;;;;;;;;21.90;45.90;;;;;;5116461;28;19979;-57
2023/11/09 03:08:26;;;;;;;;;;;21.90;46.00;;;;;;5117082;28;19977;-54
2023/11/09 03:10:53;;;;;;;;;;;21.90;46.00;;;;;;5116301;28;19924;-56
2023/11/09 03:13:21;;;;;;;;;;;21.90;46.00;;;;;;5116597;28;19924;-55
2023/11/09 03:15:48;;;;;;;;;;;22.00;46.00;;;;;;5116467;28;19935;-54
2023/11/09 03:18:16;;;;;;;;;;;22.00;46.00;;;;;;5116571;28;19928;-56
2023/11/09 03:20:45;;;;;;;;;;;22.00;45.90;;;;;;5115148;28;20225;-59
2023/11/09 03:23:12;;;;;;;;;;;22.00;45.90;;;;;;5116144;28;19932;-59
2023/11/09 03:25:39;;;;;;;;;;;21.90;45.80;;;;;;5116257;28;19979;-58
2023/11/09 03:28:05;;;;;;;;;;;22.00;45.90;;;;;;5116235;28;19990;-57
2023/11/09 03:30:35;;;;;;;;;;;22.00;45.80;;;;;;5115944;28;19931;-64
2023/11/09 03:33:02;;;;;;;;;;;22.00;45.80;;;;;;5116298;28;20376;-57
2023/11/09 03:35:30;;;;;;;;;;;21.90;45.80;;;;;;5115970;28;19988;-63
2023/11/09 03:37:57;;;;;;;;;;;21.90;45.80;;;;;;5116214;28;19927;-59
2023/11/09 03:40:24;;;;;;;;;;;21.90;45.80;;;;;;5116200;28;20291;-58
2023/11/09 03:42:52;;;;;;;;;;;21.90;45.80;;;;;;5116315;28;19977;-56
2023/11/09 03:45:19;;;;;;;;;;;21.90;45.80;;;;;;5116003;28;19928;-53
2023/11/09 03:47:46;;;;;;;;;;;21.90;45.80;;;;;;5116094;28;19923;-51
2023/11/09 03:50:13;;;;;;;;;;;21.90;45.80;;;;;;5115861;28;20291;-50
2023/11/09 03:52:41;;;;;;;;;;;21.90;45.80;;;;;;5116129;28;19970;-53
2023/11/09 03:55:10;;;;;;;;;;;21.90;45.80;;;;;;5116148;28;20334;-54
2023/11/09 03:57:38;;;;;;;;;;;21.90;45.80;;;;;;5115735;28;19969;-47
2023/11/09 04:00:11;;;;;;;;;;;21.90;45.80;;;;;;5115828;28;20007;-51
2023/11/09 04:02:41;;;;;;;;;;;21.90;45.80;;;;;;5115628;28;20411;-48
2023/11/09 04:05:09;;;;;;;;;;;21.90;45.80;;;;;;5114334;28;19927;-49
2023/11/09 04:07:38;;;;;;;;;;;21.90;45.80;;;;;;5115516;28;19969;-53
2023/11/09 04:10:06;;;;;;;;;;;21.90;45.80;;;;;;5115395;28;20139;-55
2023/11/09 04:12:33;;;;;;;;;;;21.90;45.80;;;;;;5115644;28;19931;-50
2023/11/09 04:15:01;;;;;;;;;;;21.90;45.80;;;;;;5115342;28;20318;-53
2023/11/09 04:17:28;;;;;;;;;;;21.90;45.80;;;;;;5115624;28;19980;-50
2023/11/09 04:19:55;;;;;;;;;;;21.90;45.80;;;;;;5097038;28;20335;-52
2023/11/09 04:22:22;;;;;;;;;;;21.90;45.80;;;;;;5114568;28;19924;-50
2023/11/09 04:24:49;;;;;;;;;;;21.80;45.70;;;;;;5114104;28;19924;-50
2023/11/09 04:27:16;;;;;;;;;;;21.80;45.80;;;;;;5114608;28;19923;-49
2023/11/09 04:29:43;;;;;;;;;;;21.80;45.80;;;;;;5114771;28;20206;-52
2023/11/09 04:32:10;;;;;;;;;;;21.80;45.80;;;;;;5115051;28;20414;-51
2023/11/09 04:34:37;;;;;;;;;;;21.80;45.80;;;;;;5115120;28;20069;-49
2023/11/09 04:37:07;;;;;;;;;;;21.80;45.90;;;;;;5113672;28;19963;-50
2023/11/09 04:39:41;;;;;;;;;;;21.80;45.70;;;;;;5109971;27;19924;-50
2023/11/09 04:42:09;;;;;;;;;;;21.90;45.50;;;;;;5109304;28;19928;-50
2023/11/09 04:44:40;;;;;;;;;;;21.90;45.30;;;;;;5094197;28;19975;-51
2023/11/09 04:47:11;;;;;;;;;;;21.90;45.10;;;;;;5087094;28;19928;-55
2023/11/09 04:49:45;;;;;;;;;;;22.00;45.00;;;;;;5113961;28;20307;-55
2023/11/09 04:52:13;;;;;;;;;;;22.00;44.80;;;;;;5098011;28;19928;-53
2023/11/09 04:54:56;;;;;;;;;;;22.00;44.70;;;;;;5096449;28;19923;-52
2023/11/09 05:08:38;;;;;;;;;;;21.90;44.50;;;;;;5111274;28;19950;-49
2023/11/09 05:11:05;;;;;;;;;;;21.90;44.40;;;;;;5118020;27;19924;-55
2023/11/09 05:13:32;;;;;;;;;;;21.90;44.40;;;;;;5134741;27;19924;-53
2023/11/09 05:15:59;;;;;;;;;;;21.80;44.30;;;;;;5126554;27;20413;-55
2023/11/09 05:18:26;;;;;;;;;;;21.80;44.20;;;;;;5114261;28;20295;-52
2023/11/09 05:20:53;;;;;;;;;;;21.90;44.20;;;;;;5113484;28;19969;-55
2023/11/09 05:23:20;;;;;;;;;;;21.80;44.20;;;;;;5109019;28;19923;-55
2023/11/09 05:25:47;;;;;;;;;;;21.90;44.10;;;;;;5102268;28;19924;-49
2023/11/09 05:28:14;;;;;;;;;;;21.90;44.10;;;;;;5100284;28;20273;-54
2023/11/09 05:30:41;;;;;;;;;;;21.90;44.10;;;;;;5129000;27;19930;-55
2023/11/09 05:33:08;;;;;;;;;;;21.90;44.00;;;;;;5121328;27;19932;-49
2023/11/09 05:35:35;;;;;;;;;;;21.90;43.90;;;;;;5101679;28;19928;-55
2023/11/09 05:38:03;;;;;;;;;;;21.90;44.00;;;;;;5092198;28;20440;-52
2023/11/09 05:40:30;;;;;;;;;;;21.80;43.90;;;;;;5099077;28;19949;-50
2023/11/09 05:42:59;;;;;;;;;;;21.90;43.90;;;;;;5101385;28;20282;-49
2023/11/09 05:45:26;;;;;;;;;;;21.90;43.90;;;;;;5113279;28;19931;-52
2023/11/09 05:47:53;;;;;;;;;;;21.90;43.90;;;;;;5095744;28;19924;-49
2023/11/09 05:50:20;;;;;;;;;;;21.90;43.90;;;;;;5113756;28;20282;-52
2023/11/09 05:52:48;;;;;;;;;;;21.90;43.90;;;;;;5104731;28;19948;-52
2023/11/09 05:55:15;;;;;;;;;;;21.90;43.80;;;;;;5099357;28;19924;-54
2023/11/09 05:57:42;;;;;;;;;;;21.90;43.80;;;;;;5112293;28;19984;-51
2023/11/09 06:00:10;;;;;;;;;;;21.90;43.80;;;;;;5116973;28;19970;-53
2023/11/09 06:02:37;;;;;;;;;;;21.90;43.70;;;;;;5091621;28;19924;-54
2023/11/09 06:05:05;;;;;;;;;;;21.90;43.60;;;;;;5105881;28;20347;-59
2023/11/09 06:07:34;;;;;;;;;;;21.90;43.60;;;;;;5093995;28;19931;-51
2023/11/09 06:10:03;;;;;;;;;;;21.90;43.70;;;;;;5111160;28;19965;-51
2023/11/09 06:12:30;;;;;;;;;;;22.00;43.70;;;;;;5107763;28;20436;-53
2023/11/09 06:14:57;;;;;;;;;;;22.00;43.70;;;;;;5082753;28;20437;-49
2023/11/09 06:17:24;;;;;;;;;;;22.00;43.80;;;;;;5111155;28;19931;-57
2023/11/09 06:19:51;;;;;;;;;;;22.00;43.80;;;;;;5110258;28;20417;-55
2023/11/09 06:22:18;;;;;;;;;;;22.00;44.10;;;;;;5111805;28;20377;-58
2023/11/09 06:24:45;;;;;;;;;;;22.00;44.30;;;;;;5110816;28;20010;-56
2023/11/09 06:27:15;;;;;;;;;;;22.10;44.40;;;;;;5106281;28;20026;-57
2023/11/09 06:29:43;;;;;;;;;;;22.20;44.60;;;;;;5091361;28;19971;-58
2023/11/09 06:32:10;;;;;;;;;;;22.20;44.50;;;;;;5105522;28;19981;-59
2023/11/09 06:34:39;;;;;;;;;;;22.20;45.10;;;;;;5099461;28;19931;-53
2023/11/09 06:37:06;;;;;;;;;;;22.30;44.50;;;;;;5098054;28;19931;-56
2023/11/09 06:39:33;;;;;;;;;;;22.40;44.50;;;;;;5103122;28;19935;-53
2023/11/09 06:42:00;;;;;;;;;;;22.40;44.50;;;;;;5103520;28;19986;-54
2023/11/09 06:44:27;;;;;;;;;;;22.50;44.50;;;;;;5081509;28;20036;-59
2023/11/09 06:46:55;;;;;;;;;;;22.50;44.30;;;;;;5090181;28;19935;-52
2023/11/09 06:49:25;;;;;;;;;;;22.50;44.10;;;;;;5103954;28;19932;-55
2023/11/09 06:51:53;;;;;;;;;;;22.50;43.90;;;;;;5090082;27;19923;-52
2023/11/09 06:54:20;;;;;;;;;;;22.50;43.80;;;;;;5113815;27;19928;-51
2023/11/09 06:56:51;;;;;;;;;;;22.60;43.60;;;;;;5106969;27;19924;-56
2023/11/09 06:59:18;;;;;;;;;;;22.60;43.50;;;;;;5108527;27;19927;-56
2023/11/09 07:01:46;;;;;;;;;;;22.60;43.50;;;;;;5114020;27;20328;-55
2023/11/09 07:04:14;;;;;;;;;;;22.60;43.40;;;;;;5091672;28;19924;-56
2023/11/09 07:06:43;;;;;;;;;;;22.70;43.60;;;;;;5103065;28;19928;-57
2023/11/09 07:09:11;;;;;;;;;;;22.70;43.60;;;;;;5097016;27;19936;-58
2023/11/09 07:11:38;;;;;;;;;;;22.80;44.30;;;;;;5101110;27;20370;-56
2023/11/09 07:14:06;;;;;;;;;;;22.80;43.70;;;;;;5103961;27;20014;-57
2023/11/09 07:16:33;;;;;;;;;;;22.90;43.70;;;;;;5111294;27;19967;-59
2023/11/09 07:19:01;;;;;;;;;;;22.90;43.70;;;;;;5109073;27;20006;-59
2023/11/09 07:21:28;;;;;;;;;;;22.90;43.50;;;;;;5083359;28;19924;-59
2023/11/09 07:23:59;;;;;;;;;;;23.00;43.20;;;;;;5106106;27;20436;-57
2023/11/09 07:26:27;;;;;;;;;;;22.90;43.00;;;;;;5107641;27;19931;-59
2023/11/09 07:28:54;;;;;;;;;;;23.00;43.00;;;;;;5111112;27;19927;-59
2023/11/09 07:31:23;;;;;;;;;;;23.00;42.90;;;;;;5086152;27;19931;-58
2023/11/09 07:33:50;;;;;;;;;;;23.00;43.00;;;;;;5100479;27;20434;-57
2023/11/09 07:36:18;;;;;;;;;;;23.00;42.60;;;;;;5090211;27;19942;-58
2023/11/09 07:38:46;;;;;;;;;;;23.00;42.60;;;;;;5107476;27;19932;-58
2023/11/09 07:41:14;;;;;;;;;;;23.00;42.60;;;;;;5098671;27;20026;-59
2023/11/09 07:43:42;;;;;;;;;;;23.00;42.60;;;;;;5110150;27;19935;-56
2023/11/09 07:46:09;;;;;;;;;;;23.10;42.80;;;;;;5104859;27;19930;-56
2023/11/09 07:48:36;;;;;;;;;;;23.00;43.30;;;;;;5111809;27;19958;-58
2023/11/09 07:51:04;;;;;;;;;;;23.10;42.90;;;;;;5100718;27;19938;-58
2023/11/09 07:53:32;;;;;;;;;;;23.10;42.90;;;;;;5106678;27;19966;-58
2023/11/09 07:56:00;;;;;;;;;;;23.10;42.80;;;;;;5104441;27;20365;-56
2023/11/09 07:58:29;;;;;;;;;;;23.10;42.70;;;;;;5106323;27;19924;-56
2023/11/09 08:00:58;;;;;;;;;;;23.10;42.60;;;;;;5106826;27;20414;-55
2023/11/09 08:03:25;;;;;;;;;;;23.10;42.50;;;;;;5090131;28;20387;-56
2023/11/09 08:05:52;;;;;;;;;;;23.10;42.50;;;;;;5107974;27;20392;-56
2023/11/09 08:08:20;;;;;;;;;;;23.10;42.40;;;;;;5094585;27;20003;-57
2023/11/09 08:10:47;;;;;;;;;;;23.10;42.50;;;;;;5103477;27;19930;-56
2023/11/09 08:13:14;;;;;;;;;;;23.10;42.60;;;;;;5097849;28;20435;-57
2023/11/09 08:15:41;;;;;;;;;;;23.10;42.70;;;;;;5103872;27;20391;-55
2023/11/09 08:18:08;;;;;;;;;;;23.10;42.70;;;;;;5110989;27;19928;-55
2023/11/09 08:20:35;;;;;;;;;;;23.10;42.70;;;;;;5108984;27;19932;-56
2023/11/09 08:23:03;;;;;;;;;;;23.20;42.90;;;;;;5103155;27;19972;-58
2023/11/09 08:25:30;;;;;;;;;;;23.20;42.80;;;;;;5106262;27;19924;-58
2023/11/09 08:27:58;;;;;;;;;;;23.20;42.90;;;;;;5089799;28;20009;-57
2023/11/09 08:30:27;;;;;;;;;;;23.20;42.90;;;;;;5109762;27;19938;-55
2023/11/09 08:32:55;;;;;;;;;;;23.20;42.80;;;;;;5101073;27;20380;-58
2023/11/09 08:35:24;;;;;;;;;;;23.20;42.80;;;;;;5096954;27;19931;-54
2023/11/09 08:37:56;;;;;;;;;;;23.20;42.70;;;;;;5107732;27;19928;-57
2023/11/09 08:40:29;;;;;;;;;;;23.20;42.50;;;;;;5094423;27;19932;-56
2023/11/09 08:42:57;;;;;;;;;;;23.20;42.30;;;;;;5103823;28;19942;-57
2023/11/09 08:45:27;;;;;;;;;;;23.30;42.20;;;;;;5090810;28;19951;-57
2023/11/09 08:47:55;;;;;;;;;;;23.30;42.00;;;;;;5105625;27;19927;-57
2023/11/09 08:50:23;;;;;;;;;;;23.30;42.00;;;;;;5105975;27;19986;-55
2023/11/09 08:52:53;;;;;;;;;;;23.30;41.90;;;;;;5108367;27;20458;-59
2023/11/09 08:55:22;;;;;;;;;;;23.30;41.70;;;;;;5098309;27;19927;-59
2023/11/09 08:57:54;;;;;;;;;;;23.30;41.80;;;;;;5080437;28;20394;-60
2023/11/09 09:00:23;;;;;;;;;;;23.30;41.90;;;;;;5079810;28;20027;-59
2023/11/09 09:02:51;;;;;;;;;;;23.30;41.80;;;;;;5098139;27;20016;-59
2023/11/09 09:05:20;;;;;;;;;;;23.30;41.80;;;;;;5097870;27;19938;-58
2023/11/09 09:07:53;;;;;;;;;;;23.30;42.30;;;;;;5102658;27;20296;-58
2023/11/09 09:10:27;;;;;;;;;;;23.30;41.70;;;;;;5102475;27;19981;-59
2023/11/09 09:13:00;;;;;;;;;;;23.40;41.60;;;;;;5099512;27;19940;-56
2023/11/09 09:15:28;;;;;;;;;;;23.40;41.50;;;;;;5099940;27;19931;-57
2023/11/09 09:17:58;;;;;;;;;;;23.40;41.40;;;;;;5098588;27;20030;-59
2023/11/09 09:20:27;;;;;;;;;;;23.40;41.30;;;;;;5091432;27;19931;-57
2023/11/09 09:22:57;;;;;;;;;;;23.40;41.20;;;;;;5104474;27;19935;-59
2023/11/09 09:25:25;;;;;;;;;;;23.50;41.20;;;;;;5101213;27;19932;-58
2023/11/09 09:27:53;;;;;;;;;;;23.50;41.20;;;;;;5102120;28;19957;-59
2023/11/09 09:30:21;;;;;;;;;;;23.50;41.00;;;;;;5088058;28;19954;-59
2023/11/09 09:32:50;;;;;;;;;;;23.50;41.00;;;;;;5085400;28;19939;-59
2023/11/09 09:35:23;;;;;;;;;;;23.50;40.90;;;;;;5098941;28;20003;-58
2023/11/09 09:37:59;;;;;;;;;;;23.60;41.00;;;;;;5100390;28;19950;-59
2023/11/09 09:40:32;;;;;;;;;;;23.50;41.10;;;;;;5090602;28;20392;-58
2023/11/09 09:43:14;;;;;;;;;;;23.60;41.10;;;;;;5101646;28;19924;-58
2023/11/09 09:45:46;;;;;;;;;;;23.60;41.10;;;;;;5104502;28;19932;-59
2023/11/09 09:48:15;;;;;;;;;;;23.60;41.10;;;;;;5104286;28;19927;-59
2023/11/09 09:50:43;;;;;;;;;;;23.60;41.00;;;;;;5100255;27;19946;-59
2023/11/09 09:53:11;;;;;;;;;;;23.60;41.00;;;;;;5102825;28;19930;-58
2023/11/09 09:55:40;;;;;;;;;;;23.60;40.90;;;;;;5091508;28;19924;-58
2023/11/09 09:58:08;;;;;;;;;;;23.60;40.80;;;;;;5094642;28;19928;-56
2023/11/09 10:00:38;;;;;;;;;;;23.60;40.60;;;;;;5103819;28;20029;-59
2023/11/09 10:03:06;;;;;;;;;;;23.70;41.20;;;;;;5085300;28;19993;-58
2023/11/09 10:05:35;;;;;;;;;;;23.70;40.60;;;;;;5103340;28;19932;-58
2023/11/09 10:08:04;;;;;;;;;;;23.70;40.50;;;;;;5085916;28;20047;-59
2023/11/09 10:10:37;;;;;;;;;;;23.70;40.30;;;;;;5100059;28;19979;-59
2023/11/09 10:13:07;;;;;;;;;;;23.70;40.30;;;;;;5086923;28;20381;-59
2023/11/09 10:15:34;;;;;;;;;;;23.80;40.20;;;;;;5105544;28;20387;-59
2023/11/09 10:18:02;;;;;;;;;;;23.80;40.10;;;;;;5107294;28;19927;-59
2023/11/09 10:20:29;;;;;;;;;;;23.80;40.00;;;;;;5105284;27;20031;-58
2023/11/09 10:22:57;;;;;;;;;;;23.80;40.00;;;;;;5110031;27;19932;-58
2023/11/09 10:25:29;;;;;;;;;;;23.80;39.90;;;;;;5104151;27;21713;-58
2023/11/09 10:28:00;;;;;;;;;;;23.90;39.80;;;;;;5112653;27;20279;-58
2023/11/09 10:30:28;;;;;;;;;;;23.90;39.80;;;;;;5110917;27;19945;-57
2023/11/09 10:33:05;;;;;;;;;;;23.90;39.70;;;;;;5108702;27;20342;-58
2023/11/09 10:35:32;;;;;;;;;;;23.90;39.70;;;;;;5106021;27;19974;-58
2023/11/09 10:38:01;;;;;;;;;;;23.90;39.60;;;;;;5087821;27;20331;-58
2023/11/09 10:40:30;;;;;;;;;;;23.90;39.60;;;;;;5094524;27;19927;-59
2023/11/09 10:43:00;;;;;;;;;;;24.00;39.90;;;;;;5109476;27;20286;-59
2023/11/09 10:45:30;;;;;;;;;;;24.00;39.70;;;;;;5108973;27;19996;-60
2023/11/09 10:47:59;;;;;;;;;;;23.90;39.60;;;;;;5097957;28;19924;-59
2023/11/09 10:50:28;;;;;;;;;;;23.90;39.70;;;;;;5095208;27;20309;-59
2023/11/09 10:52:56;;;;;;;;;;;24.00;39.70;;;;;;5093940;28;19928;-58
2023/11/09 10:55:25;;;;;;;;;;;24.00;39.70;;;;;;5106488;28;20410;-59
2023/11/09 10:57:52;;;;;;;;;;;24.00;39.80;;;;;;5109449;28;19927;-60
2023/11/09 11:00:26;;;;;;;;;;;24.00;39.90;;;;;;5110459;27;20002;-60
2023/11/09 11:02:54;;;;;;;;;;;24.00;40.10;;;;;;5093514;28;19928;-58
2023/11/09 11:05:25;;;;;;;;;;;24.10;40.30;;;;;;5106025;27;20276;-59
2023/11/09 11:07:58;;;;;;;;;;;24.10;40.20;;;;;;5102625;28;20367;-59
2023/11/09 11:10:26;;;;;;;;;;;24.10;40.20;;;;;;5117282;27;19924;-59
2023/11/09 11:12:55;;;;;;;;;;;24.10;40.00;;;;;;5073736;28;19924;-59
2023/11/09 11:15:30;;;;;;;;;;;24.10;39.90;;;;;;5107612;27;19959;-59
2023/11/09 11:18:07;;;;;;;;;;;24.20;39.90;;;;;;5096568;27;19924;-59
2023/11/09 11:20:47;;;;;;;;;;;24.20;39.90;;;;;;5101047;27;19938;-59
2023/11/09 11:23:37;;;;;;;;;;;24.20;39.80;;;;;;5101807;27;19977;-59
2023/11/09 11:26:10;;;;;;;;;;;24.30;39.70;;;;;;5111195;27;19924;-59
2023/11/09 11:28:38;;;;;;;;;;;24.30;39.50;;;;;;5111436;27;19923;-59
2023/11/09 11:31:08;;;;;;;;;;;24.30;39.40;;;;;;5110287;27;19935;-59
2023/11/09 11:33:39;;;;;;;;;;;24.30;39.40;;;;;;5110462;27;19924;-59
2023/11/09 11:36:07;;;;;;;;;;;24.40;39.40;;;;;;5104846;27;19923;-58
2023/11/09 11:38:35;;;;;;;;;;;24.40;39.30;;;;;;5103782;28;19924;-59
2023/11/09 11:41:17;;;;;;;;;;;24.50;39.30;;;;;;5106509;27;19938;-58
2023/11/09 11:43:51;;;;;;;;;;;24.50;39.40;;;;;;5109162;27;20016;-58
2023/11/09 11:46:19;;;;;;;;;;;24.50;39.60;;;;;;5111864;27;19923;-58
2023/11/09 11:48:50;;;;;;;;;;;24.50;39.80;;;;;;5105047;27;19931;-58
2023/11/09 11:51:18;;;;;;;;;;;24.60;39.80;;;;;;5103593;27;20008;-57
2023/11/09 11:53:52;;;;;;;;;;;24.50;39.70;;;;;;5108056;27;19924;-58
2023/11/09 11:56:24;;;;;;;;;;;24.60;39.60;;;;;;5088457;27;20019;-59
2023/11/09 11:59:00;;;;;;;;;;;24.60;39.60;;;;;;5117368;27;19931;-59
2023/11/09 12:01:28;;;;;;;;;;;24.60;39.60;;;;;;5106230;27;19963;-58
2023/11/09 12:04:02;;;;;;;;;;;24.60;39.50;;;;;;5107848;27;19997;-53
2023/11/09 12:06:33;;;;;;;;;;;24.70;39.50;;;;;;5104333;27;19932;-59
2023/11/09 12:09:02;;;;;;;;;;;24.70;39.50;;;;;;5089461;27;19931;-58
2023/11/09 12:11:38;;;;;;;;;;;24.70;39.40;;;;;;5104534;27;19928;-58
2023/11/09 12:14:08;;;;;;;;;;;24.70;39.40;;;;;;5105658;27;20294;-58
2023/11/09 12:16:36;;;;;;;;;;;24.70;39.30;;;;;;5110160;27;19928;-58
2023/11/09 12:19:11;;;;;;;;;;;24.80;39.20;;;;;;5107022;27;19931;-59
2023/11/09 12:21:39;;;;;;;;;;;24.70;39.10;;;;;;5106853;28;19931;-58
2023/11/09 12:24:12;;;;;;;;;;;24.80;39.10;;;;;;5106257;27;20014;-58
2023/11/09 12:26:41;;;;;;;;;;;24.80;38.90;;;;;;5099265;27;19959;-58
2023/11/09 12:29:10;;;;;;;;;;;24.80;38.90;;;;;;5106989;27;19923;-59
2023/11/09 12:31:38;;;;;;;;;;;24.80;38.90;;;;;;5104418;27;19932;-58
2023/11/09 12:34:09;;;;;;;;;;;24.80;38.90;;;;;;5111930;27;19931;-58
2023/11/09 12:36:39;;;;;;;;;;;24.80;39.00;;;;;;5104184;27;19932;-59
2023/11/09 12:39:28;;;;;;;;;;;24.80;39.00;;;;;;5106946;27;19924;-59
2023/11/09 12:41:55;;;;;;;;;;;24.80;38.90;;;;;;5108249;27;19927;-59
2023/11/09 12:44:29;;;;;;;;;;;24.90;39.00;;;;;;5108606;27;20354;-58
2023/11/09 12:46:57;;;;;;;;;;;24.90;39.00;;;;;;5088632;28;20383;-59
2023/11/09 12:49:29;;;;;;;;;;;24.80;39.00;;;;;;5107537;27;20002;-58
2023/11/09 12:51:57;;;;;;;;;;;24.80;39.00;;;;;;5104059;27;19939;-58
2023/11/09 12:54:24;;;;;;;;;;;24.80;39.00;;;;;;5104517;27;19966;-57
2023/11/09 12:56:56;;;;;;;;;;;24.80;39.00;;;;;;5078028;27;19978;-59
2023/11/09 12:59:27;;;;;;;;;;;24.80;39.10;;;;;;5104099;28;19932;-56
2023/11/09 13:01:56;;;;;;;;;;;24.80;39.20;;;;;;5104651;28;19981;-57
2023/11/09 13:04:27;;;;;;;;;;;24.80;39.20;;;;;;5104829;27;19927;-58
2023/11/09 13:06:56;;;;;;;;;;;24.80;39.30;;;;;;5104873;27;19993;-59
2023/11/09 13:09:38;;;;;;;;;;;24.90;39.50;;;;;;5106085;27;20260;-54
2023/11/09 13:15:11;;;;;;;;;;;24.90;39.70;;;;;;5107424;27;19970;-58
2023/11/09 13:17:48;;;;;;;;;;;24.90;39.80;;;;;;5109117;27;19931;-57
2023/11/09 13:20:27;;;;;;;;;;;25.00;39.90;;;;;;5109402;28;19931;-59
2023/11/09 13:23:04;;;;;;;;;;;24.90;39.90;;;;;;5102857;28;19931;-60
2023/11/09 13:25:39;;;;;;;;;;;24.90;39.80;;;;;;5106990;27;19946;-59
2023/11/09 13:28:14;;;;;;;;;;;25.00;39.80;;;;;;5100539;27;19924;-59
2023/11/09 13:30:50;;;;;;;;;;;24.90;39.40;;;;;;5087987;28;19931;-61
2023/11/09 13:33:34;;;;;;;;;;;24.90;39.30;;;;;;5108043;27;19946;-60
2023/11/09 13:36:04;;;;;;;;;;;24.90;39.30;;;;;;5106024;27;19931;-60
2023/11/09 13:41:22;;;;;;;;;;;24.90;39.10;;;;;;5102134;28;19955;-59
2023/11/09 13:44:05;;;;;;;;;;;24.90;39.10;;;;;;5103755;28;19928;-59
2023/11/09 13:46:40;;;;;;;;;;;24.90;39.10;;;;;;5106802;28;20050;-59
2023/11/09 13:49:27;;;;;;;;;;;24.90;39.10;;;;;;5105848;28;20268;-60
2023/11/09 13:52:13;;;;;;;;;;;24.90;39.10;;;;;;5107470;28;19927;-59
2023/11/09 13:54:59;;;;;;;;;;;24.90;39.00;;;;;;5102828;28;20318;-58
2023/11/09 13:57:27;;;;;;;;;;;24.90;39.00;;;;;;5109083;28;19923;-60
2023/11/09 13:59:54;;;;;;;;;;;24.80;39.00;;;;;;5103290;28;19932;-61
2023/11/09 14:02:29;;;;;;;;;;;24.90;39.10;;;;;;5102077;28;19934;-59
2023/11/09 14:05:08;;;;;;;;;;;24.80;39.30;;;;;;5084313;28;20346;-60
2023/11/09 14:07:40;;;;;;;;;;;24.90;39.50;;;;;;5106134;28;20437;-57
2023/11/09 14:10:13;;;;;;;;;;;24.80;39.70;;;;;;5105508;27;20022;-60
2023/11/09 14:12:49;;;;;;;;;;;24.80;39.90;;;;;;5104800;28;19931;-60
2023/11/09 14:15:23;;;;;;;;;;;24.80;40.00;;;;;;5104250;27;19924;-60
2023/11/09 14:17:51;;;;;;;;;;;24.80;40.20;;;;;;5113439;28;19923;-58
2023/11/09 14:20:41;;;;;;;;;;;24.90;40.30;;;;;;5106808;28;19935;-61
2023/11/09 14:23:07;;;;;;;;;;;24.90;40.40;;;;;;5106196;28;20366;-62
2023/11/09 14:25:38;;;;;;;;;;;24.90;40.20;;;;;;5106464;27;19928;-61
2023/11/09 14:28:05;;;;;;;;;;;24.90;40.30;;;;;;5100804;28;19955;-62
2023/11/09 14:30:32;;;;;;;;;;;24.90;40.10;;;;;;5107806;28;19999;-61
2023/11/09 14:33:01;;;;;;;;;;;24.90;40.20;;;;;;5105228;28;19977;-61
2023/11/09 14:35:28;;;;;;;;;;;25.00;40.20;;;;;;5103877;28;19924;-61
2023/11/09 14:37:55;;;;;;;;;;;24.90;40.00;;;;;;5105184;28;19934;-60
2023/11/09 14:40:27;;;;;;;;;;;25.00;40.00;;;;;;5107606;28;20036;-64
2023/11/09 14:42:56;;;;;;;;;;;24.90;40.00;;;;;;5105675;28;19931;-62
2023/11/09 14:45:40;;;;;;;;;;;24.90;39.70;;;;;;5103840;28;19924;-63